CheckWX is a tool to help pilots better visualize weather data.  It is not intended as a substitute for an official pre-flight weather briefing.

09:42:10 UTC

KBDN METAR
Bend Municipal Airport
Bend, Oregon, USA
Current

27 mins ago

KBDN 070915Z AUTO 00000KT 10SM CLR 08/04 A3006 RMK AO2
Observed
Jul-7 @ 09:15 UTC
Visibility
10 SM
Flight Rules
VFR
Cloud Levels
  • Clear skies
Temperature
C / 46°F
Dewpoint
C / 39°F
Humidity
76%
Altimeter
30.06" Hg
Pressure
1017.92 hPa
Previous

47 mins ago

KBDN 070855Z AUTO 00000KT 10SM CLR 08/03 A3006 RMK AO2
Observed
Jul-7 @ 08:55 UTC
Visibility
10 SM
Flight Rules
VFR
Cloud Levels
  • Clear skies
Temperature
C / 46°F
Dewpoint
C / 37°F
Humidity
71%
Altimeter
30.06" Hg
Pressure
1017.92 hPa
Previous

1 hour ago

KBDN 070835Z AUTO 18003KT 10SM CLR 09/04 A3006 RMK AO2
Observed
Jul-7 @ 08:35 UTC
Wind
  • 180° at 3 KTS
Visibility
10 SM
Flight Rules
VFR
Cloud Levels
  • Clear skies
Temperature
C / 48°F
Dewpoint
C / 39°F
Humidity
71%
Altimeter
30.06" Hg
Pressure
1017.92 hPa